DAL634 KDTW-KLAX
Flight info
| Callsign | DAL634 |
|---|---|
| Flight time | N/A |
| Altitude | 34000 |
| Route | KAYLN3 SMUUV OBK HATNY IOW J146 NOOTN Q88 HAKMN ANJLL4 |
| Aircraft | B738/M-SDE2E3FGHIRWXY/LB1 |
Departure
| Time | 2026-05-04 17:06 |
|---|---|
| Airport | Detroit Metropolitan Wayne County Airport (KDTW) |
Arrival
| Time | N/A |
|---|---|
| Airport | Los Angeles International Airport (KLAX) |
| Time | Latitude | Longitude | Altitude | Speed | Heading |
|---|---|---|---|---|---|
| 2026-05-04 16:53 | 42.21121 | -83.35524 | 645 ft | 0 kts | 299° |
| 2026-05-04 16:58 | 42.21122 | -83.35525 | 645 ft | 0 kts | 314° |
| 2026-05-04 16:58 | 42.21127 | -83.35522 | 647 ft | 1 kts | 21° |
| 2026-05-04 16:59 | 42.21201 | -83.35379 | 646 ft | 21 kts | 25° |
| 2026-05-04 17:00 | 42.21715 | -83.34879 | 646 ft | 22 kts | 42° |
| 2026-05-04 17:00 | 42.21839 | -83.34552 | 646 ft | 13 kts | 76° |
| 2026-05-04 17:01 | 42.22049 | -83.34358 | 645 ft | 23 kts | 28° |
| 2026-05-04 17:01 | 42.22320 | -83.34159 | 645 ft | 22 kts | 28° |
| 2026-05-04 17:02 | 42.22535 | -83.34000 | 645 ft | 20 kts | 29° |
| 2026-05-04 17:02 | 42.22736 | -83.33850 | 645 ft | 13 kts | 26° |
| 2026-05-04 17:03 | 42.22814 | -83.33795 | 645 ft | 13 kts | 28° |
| 2026-05-04 17:03 | 42.22854 | -83.33761 | 646 ft | 2 kts | 50° |
| 2026-05-04 17:03 | 42.22861 | -83.33735 | 644 ft | 0 kts | 77° |
| 2026-05-04 17:04 | 42.22850 | -83.33701 | 643 ft | 8 kts | 112° |
| 2026-05-04 17:04 | 42.22785 | -83.33643 | 644 ft | 0 kts | 209° |
| 2026-05-04 17:05 | 42.22158 | -83.34106 | 645 ft | 119 kts | 208° |
| 2026-05-04 17:06 | 42.20282 | -83.35468 | 1493 ft | 162 kts | 213° |
| 2026-05-04 17:06 | 42.19316 | -83.36313 | 2218 ft | 178 kts | 231° |
| 2026-05-04 17:07 | 42.17691 | -83.39370 | 2863 ft | 216 kts | 236° |
| 2026-05-04 17:07 | 42.17083 | -83.40490 | 3221 ft | 223 kts | 236° |
| 2026-05-04 17:07 | 42.15820 | -83.42794 | 4006 ft | 236 kts | 236° |
| 2026-05-04 17:07 | 42.14838 | -83.44565 | 4874 ft | 237 kts | 236° |
| 2026-05-04 17:08 | 42.13844 | -83.46357 | 5643 ft | 241 kts | 236° |
| 2026-05-04 17:08 | 42.11784 | -83.50045 | 6822 ft | 249 kts | 236° |
| 2026-05-04 17:08 | 42.10727 | -83.51930 | 6977 ft | 256 kts | 236° |
| 2026-05-04 17:09 | 42.09653 | -83.53831 | 6965 ft | 254 kts | 236° |
| 2026-05-04 17:09 | 42.08587 | -83.55725 | 7030 ft | 254 kts | 236° |
| 2026-05-04 17:09 | 42.07511 | -83.57634 | 7603 ft | 257 kts | 236° |
| 2026-05-04 17:10 | 42.06150 | -83.61917 | 9047 ft | 258 kts | 272° |
| 2026-05-04 17:10 | 42.08527 | -83.68424 | 11150 ft | 269 kts | 305° |
| 2026-05-04 17:11 | 42.09648 | -83.70447 | 11843 ft | 271 kts | 304° |
| 2026-05-04 17:11 | 42.10780 | -83.72504 | 12513 ft | 275 kts | 304° |
| 2026-05-04 17:11 | 42.13061 | -83.76703 | 13877 ft | 281 kts | 304° |
| 2026-05-04 17:12 | 42.14213 | -83.78838 | 14495 ft | 283 kts | 304° |
| 2026-05-04 17:12 | 42.16541 | -83.83164 | 15765 ft | 287 kts | 304° |
| 2026-05-04 17:13 | 42.20112 | -83.89816 | 17151 ft | 310 kts | 304° |
| 2026-05-04 17:14 | 42.24201 | -83.97451 | 17576 ft | 359 kts | 304° |
| 2026-05-04 17:14 | 42.25681 | -84.00218 | 18059 ft | 363 kts | 304° |
| 2026-05-04 17:14 | 42.28620 | -84.05716 | 19320 ft | 361 kts | 304° |
| 2026-05-04 17:15 | 42.30092 | -84.08475 | 19828 ft | 363 kts | 304° |
| 2026-05-04 17:15 | 42.33060 | -84.14047 | 20847 ft | 367 kts | 304° |
| 2026-05-04 17:16 | 42.36050 | -84.19673 | 21877 ft | 369 kts | 304° |
| 2026-05-04 17:16 | 42.40563 | -84.28181 | 23270 ft | 375 kts | 304° |
| 2026-05-04 17:17 | 42.41856 | -84.31244 | 23637 ft | 376 kts | 293° |
| 2026-05-04 17:17 | 42.43423 | -84.41691 | 24741 ft | 384 kts | 274° |
| 2026-05-04 17:18 | 42.43492 | -84.45306 | 25105 ft | 386 kts | 274° |
| 2026-05-04 17:18 | 42.43635 | -84.52625 | 25786 ft | 390 kts | 274° |
| 2026-05-04 17:19 | 42.43818 | -84.59993 | 26448 ft | 393 kts | 274° |
| 2026-05-04 17:19 | 42.44004 | -84.67431 | 27079 ft | 397 kts | 274° |
| 2026-05-04 17:20 | 42.44184 | -84.74929 | 27687 ft | 400 kts | 274° |
| 2026-05-04 17:20 | 42.44362 | -84.82503 | 28289 ft | 403 kts | 274° |
| 2026-05-04 17:20 | 42.44449 | -84.86272 | 28573 ft | 405 kts | 274° |
| 2026-05-04 17:21 | 42.44621 | -84.93931 | 29121 ft | 408 kts | 274° |
| 2026-05-04 17:21 | 42.44786 | -85.01588 | 29918 ft | 404 kts | 274° |
| 2026-05-04 17:22 | 42.44864 | -85.05375 | 30286 ft | 402 kts | 274° |
| 2026-05-04 17:22 | 42.44942 | -85.09153 | 30577 ft | 401 kts | 274° |
| 2026-05-04 17:23 | 42.45168 | -85.20462 | 31486 ft | 398 kts | 274° |
| 2026-05-04 17:23 | 42.45240 | -85.24207 | 31774 ft | 397 kts | 274° |
| 2026-05-04 17:23 | 42.45381 | -85.31662 | 32369 ft | 395 kts | 274° |
| 2026-05-04 17:24 | 42.45448 | -85.35332 | 32665 ft | 393 kts | 274° |
| 2026-05-04 17:24 | 42.45645 | -85.46407 | 33491 ft | 391 kts | 274° |
| 2026-05-04 17:25 | 42.45708 | -85.50082 | 33701 ft | 391 kts | 274° |
| 2026-05-04 17:26 | 42.45952 | -85.65021 | 33690 ft | 398 kts | 274° |
| 2026-05-04 17:27 | 42.46229 | -85.83700 | 33688 ft | 397 kts | 273° |
| 2026-05-04 17:28 | 42.46429 | -85.98622 | 33677 ft | 397 kts | 273° |
| 2026-05-04 17:29 | 42.45547 | -86.21342 | 33451 ft | 409 kts | 262° |
| 2026-05-04 17:30 | 42.44055 | -86.32793 | 33674 ft | 415 kts | 262° |
| 2026-05-04 17:31 | 42.43064 | -86.40493 | 33679 ft | 418 kts | 262° |
| 2026-05-04 17:32 | 42.40546 | -86.59964 | 33678 ft | 420 kts | 262° |
| 2026-05-04 17:33 | 42.38512 | -86.75505 | 33673 ft | 418 kts | 262° |
| 2026-05-04 17:34 | 42.36475 | -86.90903 | 33673 ft | 416 kts | 262° |
| 2026-05-04 17:35 | 42.33900 | -87.10132 | 33669 ft | 415 kts | 262° |
| 2026-05-04 17:36 | 42.32862 | -87.17811 | 33670 ft | 415 kts | 262° |
| 2026-05-04 17:36 | 42.31819 | -87.25492 | 33664 ft | 415 kts | 262° |
| 2026-05-04 17:37 | 42.30772 | -87.33156 | 33659 ft | 415 kts | 262° |
| 2026-05-04 17:37 | 42.29720 | -87.40818 | 33658 ft | 415 kts | 262° |
| 2026-05-04 17:38 | 42.28663 | -87.48478 | 33649 ft | 415 kts | 261° |
| 2026-05-04 17:38 | 42.27608 | -87.56086 | 33644 ft | 415 kts | 261° |
| 2026-05-04 17:39 | 42.26005 | -87.67567 | 33639 ft | 415 kts | 261° |
| 2026-05-04 17:39 | 42.24930 | -87.75223 | 33659 ft | 415 kts | 261° |
| 2026-05-04 17:40 | 42.23849 | -87.82885 | 33669 ft | 415 kts | 261° |
| 2026-05-04 17:40 | 42.22762 | -87.90553 | 33675 ft | 416 kts | 261° |
| 2026-05-04 17:41 | 42.21609 | -87.98204 | 33674 ft | 417 kts | 259° |
| 2026-05-04 17:41 | 42.20210 | -88.05797 | 33676 ft | 418 kts | 258° |
| 2026-05-04 17:42 | 42.18763 | -88.13383 | 33661 ft | 418 kts | 258° |
| 2026-05-04 17:42 | 42.17335 | -88.20944 | 33656 ft | 418 kts | 258° |
| 2026-05-04 17:43 | 42.15908 | -88.28552 | 33660 ft | 418 kts | 258° |
| 2026-05-04 17:43 | 42.14481 | -88.36159 | 33658 ft | 419 kts | 258° |
| 2026-05-04 17:44 | 42.13049 | -88.43770 | 33654 ft | 419 kts | 258° |
| 2026-05-04 17:44 | 42.11620 | -88.51333 | 33655 ft | 419 kts | 258° |
| 2026-05-04 17:45 | 42.10177 | -88.58938 | 33649 ft | 419 kts | 257° |
| 2026-05-04 17:45 | 42.08730 | -88.66531 | 33655 ft | 419 kts | 257° |
| 2026-05-04 17:46 | 42.07277 | -88.74131 | 33654 ft | 419 kts | 257° |
| 2026-05-04 17:46 | 42.05818 | -88.81733 | 33657 ft | 419 kts | 257° |
| 2026-05-04 17:47 | 42.04600 | -88.88051 | 33656 ft | 419 kts | 257° |
| 2026-05-04 17:47 | 42.02893 | -88.96878 | 33653 ft | 419 kts | 257° |
| 2026-05-04 17:48 | 42.01667 | -89.03195 | 33643 ft | 419 kts | 257° |
| 2026-05-04 17:48 | 42.00187 | -89.10787 | 33650 ft | 419 kts | 257° |
| 2026-05-04 17:49 | 41.98702 | -89.18381 | 33648 ft | 420 kts | 257° |
| 2026-05-04 17:49 | 41.97211 | -89.25975 | 33650 ft | 420 kts | 257° |
| 2026-05-04 17:50 | 41.95727 | -89.33506 | 33648 ft | 420 kts | 257° |
| 2026-05-04 17:50 | 41.94227 | -89.41085 | 33647 ft | 420 kts | 257° |
| 2026-05-04 17:51 | 41.92721 | -89.48669 | 33645 ft | 420 kts | 257° |
| 2026-05-04 17:51 | 41.91208 | -89.56258 | 33647 ft | 420 kts | 257° |
| 2026-05-04 17:52 | 41.89690 | -89.63846 | 33646 ft | 420 kts | 257° |
| 2026-05-04 17:52 | 41.88177 | -89.71381 | 33652 ft | 421 kts | 257° |
| 2026-05-04 17:53 | 41.86646 | -89.78976 | 33644 ft | 421 kts | 257° |
| 2026-05-04 17:53 | 41.85111 | -89.86562 | 33647 ft | 421 kts | 256° |
| 2026-05-04 17:54 | 41.83572 | -89.94139 | 33645 ft | 421 kts | 256° |
| 2026-05-04 17:54 | 41.82027 | -90.01717 | 33637 ft | 421 kts | 256° |
| 2026-05-04 17:55 | 41.80476 | -90.09295 | 33645 ft | 422 kts | 256° |
| 2026-05-04 17:55 | 41.78918 | -90.16881 | 33647 ft | 422 kts | 256° |
| 2026-05-04 17:56 | 41.77357 | -90.24454 | 33644 ft | 422 kts | 256° |
| 2026-05-04 17:56 | 41.75798 | -90.31990 | 33644 ft | 422 kts | 256° |
| 2026-05-04 17:57 | 41.74227 | -90.39558 | 33645 ft | 422 kts | 256° |
| 2026-05-04 17:57 | 41.72651 | -90.47121 | 33647 ft | 422 kts | 256° |
| 2026-05-04 17:58 | 41.71072 | -90.54675 | 33636 ft | 422 kts | 256° |
| 2026-05-04 17:58 | 41.69486 | -90.62240 | 33637 ft | 422 kts | 256° |
| 2026-05-04 17:59 | 41.67964 | -90.69826 | 33635 ft | 421 kts | 258° |
| 2026-05-04 18:00 | 41.66039 | -90.81261 | 33633 ft | 422 kts | 259° |
| 2026-05-04 18:00 | 41.64740 | -90.88921 | 33632 ft | 422 kts | 258° |
| 2026-05-04 18:01 | 41.63415 | -90.96562 | 33630 ft | 422 kts | 258° |
| 2026-05-04 18:01 | 41.62078 | -91.04195 | 33637 ft | 422 kts | 258° |
| 2026-05-04 18:02 | 41.60059 | -91.15658 | 33635 ft | 422 kts | 258° |
| 2026-05-04 18:02 | 41.58707 | -91.23295 | 33641 ft | 422 kts | 258° |
| 2026-05-04 18:03 | 41.57352 | -91.30922 | 33635 ft | 422 kts | 258° |
| 2026-05-04 18:03 | 41.55999 | -91.38502 | 33641 ft | 422 kts | 258° |
| 2026-05-04 18:04 | 41.54632 | -91.46136 | 33639 ft | 422 kts | 258° |
| 2026-05-04 18:05 | 41.52572 | -91.57584 | 33660 ft | 422 kts | 258° |
| 2026-05-04 18:05 | 41.51469 | -91.65264 | 33637 ft | 420 kts | 264° |
| 2026-05-04 18:06 | 41.50418 | -91.76866 | 33636 ft | 420 kts | 264° |
| 2026-05-04 18:06 | 41.49703 | -91.84593 | 33640 ft | 420 kts | 264° |
| 2026-05-04 18:07 | 41.48974 | -91.92277 | 33634 ft | 420 kts | 264° |
| 2026-05-04 18:07 | 41.48230 | -92.00023 | 33638 ft | 421 kts | 264° |
| 2026-05-04 18:08 | 41.47479 | -92.07771 | 33636 ft | 421 kts | 263° |
| 2026-05-04 18:08 | 41.46724 | -92.15519 | 33630 ft | 422 kts | 263° |
| 2026-05-04 18:09 | 41.45200 | -92.30991 | 33638 ft | 421 kts | 263° |
| 2026-05-04 18:10 | 41.44429 | -92.38734 | 33643 ft | 421 kts | 263° |
| 2026-05-04 18:10 | 41.43654 | -92.46483 | 33647 ft | 421 kts | 263° |
| 2026-05-04 18:11 | 41.42872 | -92.54220 | 33647 ft | 421 kts | 263° |
| 2026-05-04 18:11 | 41.42086 | -92.61948 | 33644 ft | 421 kts | 263° |
| 2026-05-04 18:12 | 41.41302 | -92.69613 | 33647 ft | 420 kts | 263° |
| 2026-05-04 18:12 | 41.40509 | -92.77319 | 33651 ft | 420 kts | 263° |
| 2026-05-04 18:13 | 41.39711 | -92.85020 | 33656 ft | 419 kts | 263° |
| 2026-05-04 18:14 | 41.38506 | -92.96556 | 33656 ft | 419 kts | 263° |
| 2026-05-04 18:14 | 41.37696 | -93.04242 | 33655 ft | 418 kts | 263° |
| 2026-05-04 18:15 | 41.36066 | -93.19568 | 33648 ft | 418 kts | 263° |
| 2026-05-04 18:16 | 41.35244 | -93.27225 | 33646 ft | 418 kts | 263° |
| 2026-05-04 18:16 | 41.34423 | -93.34827 | 33640 ft | 418 kts | 263° |
| 2026-05-04 18:17 | 41.33170 | -93.46322 | 33635 ft | 418 kts | 263° |
| 2026-05-04 18:18 | 41.31910 | -93.57782 | 33635 ft | 417 kts | 263° |
| 2026-05-04 18:18 | 41.31064 | -93.65415 | 33641 ft | 417 kts | 263° |
| 2026-05-04 18:19 | 41.29791 | -93.76807 | 33637 ft | 417 kts | 263° |
| 2026-05-04 18:19 | 41.28933 | -93.84434 | 33637 ft | 417 kts | 263° |
| 2026-05-04 18:20 | 41.28071 | -93.92049 | 33635 ft | 417 kts | 263° |
| 2026-05-04 18:20 | 41.27202 | -93.99675 | 33633 ft | 416 kts | 263° |
| 2026-05-04 18:21 | 41.26329 | -94.07288 | 33647 ft | 416 kts | 263° |
| 2026-05-04 18:21 | 41.25452 | -94.14891 | 33648 ft | 416 kts | 263° |
| 2026-05-04 18:22 | 41.24570 | -94.22496 | 33660 ft | 416 kts | 263° |
| 2026-05-04 18:22 | 41.23689 | -94.30051 | 33654 ft | 416 kts | 263° |
| 2026-05-04 18:23 | 41.22797 | -94.37645 | 33660 ft | 416 kts | 263° |
| 2026-05-04 18:23 | 41.21901 | -94.45239 | 33660 ft | 416 kts | 262° |
| 2026-05-04 18:24 | 41.20998 | -94.52839 | 33658 ft | 416 kts | 262° |
| 2026-05-04 18:24 | 41.20092 | -94.60423 | 33664 ft | 416 kts | 262° |
| 2026-05-04 18:25 | 41.19181 | -94.68008 | 33646 ft | 416 kts | 262° |
| 2026-05-04 18:25 | 41.18263 | -94.75602 | 33663 ft | 416 kts | 262° |
| 2026-05-04 18:26 | 41.17341 | -94.83191 | 33654 ft | 417 kts | 262° |
| 2026-05-04 18:26 | 41.16413 | -94.90786 | 33662 ft | 417 kts | 262° |
| 2026-05-04 18:27 | 41.15486 | -94.98330 | 33659 ft | 417 kts | 262° |
| 2026-05-04 18:27 | 41.14546 | -95.05931 | 33668 ft | 417 kts | 262° |
| 2026-05-04 18:28 | 41.13601 | -95.13536 | 33675 ft | 417 kts | 262° |
| 2026-05-04 18:28 | 41.12651 | -95.21139 | 33674 ft | 417 kts | 262° |
| 2026-05-04 18:29 | 41.11698 | -95.28725 | 33679 ft | 417 kts | 262° |
| 2026-05-04 18:29 | 41.10738 | -95.36323 | 33679 ft | 417 kts | 262° |
| 2026-05-04 18:30 | 41.09289 | -95.47714 | 33670 ft | 418 kts | 262° |
| 2026-05-04 18:31 | 41.08316 | -95.55303 | 33671 ft | 418 kts | 262° |
| 2026-05-04 18:31 | 41.07344 | -95.62852 | 33664 ft | 418 kts | 262° |
| 2026-05-04 18:32 | 41.06361 | -95.70447 | 33671 ft | 417 kts | 262° |
| 2026-05-04 18:32 | 41.05375 | -95.78024 | 33668 ft | 417 kts | 262° |
| 2026-05-04 18:33 | 41.04384 | -95.85594 | 33672 ft | 417 kts | 262° |
| 2026-05-04 18:33 | 41.03387 | -95.93166 | 33692 ft | 416 kts | 262° |
| 2026-05-04 18:34 | 41.02394 | -96.00677 | 33685 ft | 416 kts | 262° |
| 2026-05-04 18:34 | 41.01391 | -96.08223 | 33692 ft | 416 kts | 262° |
| 2026-05-04 18:35 | 41.00554 | -96.14489 | 33681 ft | 415 kts | 262° |
| 2026-05-04 18:35 | 40.99544 | -96.22018 | 33667 ft | 415 kts | 262° |
| 2026-05-04 18:36 | 40.98529 | -96.29538 | 33667 ft | 414 kts | 262° |
| 2026-05-04 18:36 | 40.97512 | -96.37039 | 33663 ft | 414 kts | 262° |
| 2026-05-04 18:37 | 40.96493 | -96.44522 | 33669 ft | 413 kts | 262° |
| 2026-05-04 18:37 | 40.95469 | -96.52001 | 33678 ft | 412 kts | 262° |
| 2026-05-04 18:38 | 40.94450 | -96.59400 | 33685 ft | 411 kts | 262° |
| 2026-05-04 18:38 | 40.93422 | -96.66845 | 33693 ft | 411 kts | 262° |
| 2026-05-04 18:39 | 40.92337 | -96.74262 | 33685 ft | 411 kts | 258° |
| 2026-05-04 18:39 | 40.90416 | -96.81408 | 33694 ft | 413 kts | 252° |
| 2026-05-04 18:40 | 40.88371 | -96.88495 | 33692 ft | 412 kts | 252° |
| 2026-05-04 18:40 | 40.86342 | -96.95565 | 33687 ft | 411 kts | 252° |
| 2026-05-04 18:41 | 40.84322 | -97.02630 | 33683 ft | 411 kts | 252° |
| 2026-05-04 18:41 | 40.82316 | -97.09647 | 33679 ft | 410 kts | 252° |
| 2026-05-04 18:42 | 40.80298 | -97.16688 | 33677 ft | 410 kts | 252° |
| 2026-05-04 18:42 | 40.78274 | -97.23731 | 33680 ft | 410 kts | 252° |
| 2026-05-04 18:43 | 40.76246 | -97.30767 | 33689 ft | 410 kts | 252° |
| 2026-05-04 18:43 | 40.74216 | -97.37795 | 33692 ft | 410 kts | 252° |
| 2026-05-04 18:44 | 40.72193 | -97.44774 | 33702 ft | 410 kts | 252° |
| 2026-05-04 18:44 | 40.70154 | -97.51793 | 33702 ft | 410 kts | 252° |
| 2026-05-04 18:45 | 40.68109 | -97.58815 | 33699 ft | 410 kts | 252° |
| 2026-05-04 18:45 | 40.66059 | -97.65832 | 33702 ft | 411 kts | 252° |
| 2026-05-04 18:46 | 40.64000 | -97.72861 | 33700 ft | 411 kts | 252° |
| 2026-05-04 18:46 | 40.61947 | -97.79853 | 33694 ft | 412 kts | 252° |
| 2026-05-04 18:47 | 40.59872 | -97.86901 | 33699 ft | 412 kts | 252° |
| 2026-05-04 18:47 | 40.57794 | -97.93938 | 33698 ft | 413 kts | 252° |
| 2026-05-04 18:48 | 40.55709 | -98.00981 | 33692 ft | 413 kts | 252° |
| 2026-05-04 18:48 | 40.53619 | -98.08023 | 33699 ft | 413 kts | 252° |
| 2026-05-04 18:49 | 40.51524 | -98.15062 | 33705 ft | 413 kts | 252° |
| 2026-05-04 18:49 | 40.49425 | -98.22095 | 33714 ft | 413 kts | 251° |
| 2026-05-04 18:50 | 40.47335 | -98.29078 | 33728 ft | 413 kts | 251° |
| 2026-05-04 18:50 | 40.45224 | -98.36115 | 33728 ft | 413 kts | 251° |
| 2026-05-04 18:51 | 40.43107 | -98.43151 | 33727 ft | 413 kts | 251° |
| 2026-05-04 18:51 | 40.41004 | -98.50124 | 33715 ft | 413 kts | 251° |
| 2026-05-04 18:52 | 40.38884 | -98.57136 | 33713 ft | 413 kts | 251° |
| 2026-05-04 18:52 | 40.36762 | -98.64135 | 33698 ft | 412 kts | 252° |
| 2026-05-04 18:53 | 40.34651 | -98.71081 | 33681 ft | 412 kts | 252° |
| 2026-05-04 18:53 | 40.32526 | -98.78052 | 33682 ft | 411 kts | 252° |
| 2026-05-04 18:54 | 40.30398 | -98.85017 | 33679 ft | 410 kts | 252° |
| 2026-05-04 18:54 | 40.28275 | -98.91947 | 33679 ft | 409 kts | 252° |
| 2026-05-04 18:55 | 40.26152 | -98.98856 | 33684 ft | 408 kts | 252° |
| 2026-05-04 18:55 | 40.22988 | -99.09126 | 33697 ft | 406 kts | 252° |
| 2026-05-04 18:56 | 40.20876 | -99.15960 | 33694 ft | 404 kts | 252° |
| 2026-05-04 18:56 | 40.18767 | -99.22766 | 33695 ft | 403 kts | 252° |
| 2026-05-04 18:57 | 40.16664 | -99.29534 | 33695 ft | 401 kts | 252° |
| 2026-05-04 18:57 | 40.14561 | -99.36287 | 33687 ft | 400 kts | 252° |
| 2026-05-04 18:58 | 40.12475 | -99.42969 | 33683 ft | 398 kts | 252° |
| 2026-05-04 18:58 | 40.10379 | -99.49668 | 33680 ft | 397 kts | 252° |
| 2026-05-04 18:59 | 40.08286 | -99.56338 | 33684 ft | 396 kts | 252° |
| 2026-05-04 18:59 | 40.06196 | -99.62986 | 33698 ft | 395 kts | 252° |
| 2026-05-04 19:00 | 40.04118 | -99.69578 | 33707 ft | 395 kts | 252° |
| 2026-05-04 19:00 | 40.02023 | -99.76208 | 33712 ft | 394 kts | 252° |
| 2026-05-04 19:01 | 39.99927 | -99.82823 | 33726 ft | 394 kts | 252° |
| 2026-05-04 19:01 | 39.97830 | -99.89428 | 33735 ft | 394 kts | 252° |
| 2026-05-04 19:02 | 39.95729 | -99.96028 | 33733 ft | 394 kts | 252° |
| 2026-05-04 19:02 | 39.93626 | -100.02619 | 33729 ft | 394 kts | 252° |
| 2026-05-04 19:03 | 39.91531 | -100.09170 | 33721 ft | 394 kts | 252° |
| 2026-05-04 19:03 | 39.89421 | -100.15751 | 33717 ft | 394 kts | 252° |
| 2026-05-04 19:04 | 39.87306 | -100.22333 | 33705 ft | 393 kts | 252° |
| 2026-05-04 19:04 | 39.85190 | -100.28902 | 33727 ft | 393 kts | 252° |
| 2026-05-04 19:05 | 39.83075 | -100.35453 | 33741 ft | 392 kts | 253° |
| 2026-05-04 19:05 | 39.80957 | -100.41995 | 33756 ft | 392 kts | 253° |
| 2026-05-04 19:06 | 39.78838 | -100.48528 | 33762 ft | 392 kts | 253° |
| 2026-05-04 19:06 | 39.76732 | -100.55007 | 33757 ft | 392 kts | 253° |
| 2026-05-04 19:07 | 39.74608 | -100.61523 | 33749 ft | 391 kts | 253° |
| 2026-05-04 19:07 | 39.72484 | -100.68026 | 33748 ft | 391 kts | 253° |
| 2026-05-04 19:08 | 39.70358 | -100.74520 | 33724 ft | 390 kts | 253° |
| 2026-05-04 19:08 | 39.68231 | -100.81000 | 33737 ft | 390 kts | 253° |
| 2026-05-04 19:09 | 39.66100 | -100.87479 | 33744 ft | 390 kts | 253° |
| 2026-05-04 19:09 | 39.63965 | -100.93954 | 33752 ft | 390 kts | 253° |
| 2026-05-04 19:10 | 39.61845 | -101.00367 | 33734 ft | 389 kts | 253° |
| 2026-05-04 19:10 | 39.59709 | -101.06819 | 33748 ft | 389 kts | 253° |
| 2026-05-04 19:11 | 39.57572 | -101.13255 | 33746 ft | 389 kts | 253° |
| 2026-05-04 19:11 | 39.55431 | -101.19690 | 33744 ft | 388 kts | 253° |
| 2026-05-04 19:12 | 39.52222 | -101.29307 | 33734 ft | 388 kts | 253° |
| 2026-05-04 19:13 | 39.50077 | -101.35719 | 33717 ft | 388 kts | 253° |
| 2026-05-04 19:13 | 39.47930 | -101.42124 | 33720 ft | 388 kts | 253° |
| 2026-05-04 19:14 | 39.45792 | -101.48487 | 33736 ft | 388 kts | 252° |
| 2026-05-04 19:14 | 39.43632 | -101.54899 | 33762 ft | 388 kts | 252° |
| 2026-05-04 19:15 | 39.41471 | -101.61305 | 33775 ft | 388 kts | 252° |
| 2026-05-04 19:15 | 39.39326 | -101.67712 | 33770 ft | 387 kts | 255° |
| 2026-05-04 19:16 | 39.37984 | -101.74313 | 33785 ft | 381 kts | 263° |
| 2026-05-04 19:16 | 39.36992 | -101.81047 | 33774 ft | 381 kts | 263° |
| 2026-05-04 19:17 | 39.35983 | -101.87789 | 33763 ft | 382 kts | 263° |
| 2026-05-04 19:17 | 39.34964 | -101.94524 | 33743 ft | 382 kts | 262° |
| 2026-05-04 19:18 | 39.33935 | -102.01267 | 33747 ft | 383 kts | 262° |
| 2026-05-04 19:18 | 39.32899 | -102.08023 | 33769 ft | 383 kts | 262° |
| 2026-05-04 19:19 | 39.31867 | -102.14727 | 33788 ft | 383 kts | 262° |
| 2026-05-04 19:19 | 39.30823 | -102.21480 | 33805 ft | 383 kts | 262° |
| 2026-05-04 19:20 | 39.29775 | -102.28233 | 33803 ft | 383 kts | 262° |
| 2026-05-04 19:20 | 39.28724 | -102.34980 | 33805 ft | 384 kts | 262° |
| 2026-05-04 19:21 | 39.27667 | -102.41735 | 33794 ft | 384 kts | 262° |
| 2026-05-04 19:21 | 39.26607 | -102.48487 | 33774 ft | 384 kts | 262° |
| 2026-05-04 19:22 | 39.25722 | -102.54101 | 33757 ft | 384 kts | 262° |
| 2026-05-04 19:22 | 39.24655 | -102.60843 | 33732 ft | 384 kts | 262° |
| 2026-05-04 19:23 | 39.23583 | -102.67593 | 33714 ft | 383 kts | 262° |
| 2026-05-04 19:23 | 39.22508 | -102.74331 | 33684 ft | 383 kts | 262° |
| 2026-05-04 19:24 | 39.21431 | -102.81058 | 33685 ft | 383 kts | 262° |
| 2026-05-04 19:24 | 39.20356 | -102.87749 | 33686 ft | 383 kts | 262° |
| 2026-05-04 19:25 | 39.19272 | -102.94467 | 33684 ft | 382 kts | 262° |
| 2026-05-04 19:25 | 39.18185 | -103.01182 | 33684 ft | 382 kts | 262° |
| 2026-05-04 19:26 | 39.17096 | -103.07880 | 33681 ft | 382 kts | 262° |
| 2026-05-04 19:26 | 39.16003 | -103.14570 | 33685 ft | 381 kts | 262° |
| 2026-05-04 19:27 | 39.14910 | -103.21246 | 33683 ft | 380 kts | 262° |
| 2026-05-04 19:27 | 39.13822 | -103.27863 | 33698 ft | 380 kts | 262° |
| 2026-05-04 19:28 | 39.12725 | -103.34507 | 33722 ft | 379 kts | 262° |
| 2026-05-04 19:28 | 39.11626 | -103.41139 | 33747 ft | 378 kts | 262° |
| 2026-05-04 19:29 | 39.10523 | -103.47771 | 33760 ft | 378 kts | 261° |
| 2026-05-04 19:29 | 39.09420 | -103.54381 | 33783 ft | 377 kts | 261° |
| 2026-05-04 19:30 | 39.08316 | -103.60973 | 33783 ft | 376 kts | 261° |
| 2026-05-04 19:30 | 39.07208 | -103.67561 | 33778 ft | 376 kts | 261° |
| 2026-05-04 19:31 | 39.06107 | -103.74086 | 33766 ft | 375 kts | 261° |
| 2026-05-04 19:31 | 39.04991 | -103.80674 | 33751 ft | 374 kts | 261° |
| 2026-05-04 19:32 | 39.03886 | -103.87173 | 33731 ft | 374 kts | 261° |
| 2026-05-04 19:32 | 39.02773 | -103.93698 | 33715 ft | 373 kts | 261° |
| 2026-05-04 19:33 | 39.01656 | -104.00219 | 33695 ft | 373 kts | 261° |
| 2026-05-04 19:33 | 39.00538 | -104.06729 | 33696 ft | 373 kts | 261° |
| 2026-05-04 19:34 | 38.99417 | -104.13231 | 33713 ft | 372 kts | 261° |
| 2026-05-04 19:34 | 38.98292 | -104.19734 | 33762 ft | 372 kts | 261° |
| 2026-05-04 19:35 | 38.97166 | -104.26216 | 33809 ft | 371 kts | 261° |
| 2026-05-04 19:35 | 38.96045 | -104.32649 | 33859 ft | 371 kts | 261° |
| 2026-05-04 19:36 | 38.94913 | -104.39121 | 33900 ft | 371 kts | 261° |
| 2026-05-04 19:36 | 38.93779 | -104.45585 | 33943 ft | 370 kts | 261° |
| 2026-05-04 19:37 | 38.92645 | -104.52027 | 33946 ft | 370 kts | 261° |
| 2026-05-04 19:37 | 38.91506 | -104.58471 | 33943 ft | 369 kts | 261° |
| 2026-05-04 19:38 | 38.90368 | -104.64892 | 33954 ft | 369 kts | 261° |
| 2026-05-04 19:38 | 38.89226 | -104.71315 | 33905 ft | 369 kts | 261° |
| 2026-05-04 19:39 | 38.88079 | -104.77737 | 33899 ft | 369 kts | 261° |
| 2026-05-04 19:39 | 38.86937 | -104.84116 | 33890 ft | 369 kts | 261° |
| 2026-05-04 19:40 | 38.85786 | -104.90522 | 33875 ft | 369 kts | 261° |
| 2026-05-04 19:40 | 38.84631 | -104.96931 | 33852 ft | 368 kts | 261° |
| 2026-05-04 19:41 | 38.83475 | -105.03319 | 33822 ft | 366 kts | 260° |
| 2026-05-04 19:41 | 38.82320 | -105.09674 | 33817 ft | 367 kts | 261° |
| 2026-05-04 19:42 | 38.81158 | -105.16061 | 33794 ft | 368 kts | 260° |
| 2026-05-04 19:42 | 38.79988 | -105.22464 | 33770 ft | 369 kts | 260° |
| 2026-05-04 19:43 | 38.78821 | -105.28834 | 33760 ft | 370 kts | 260° |
| 2026-05-04 19:43 | 38.77640 | -105.35250 | 33768 ft | 369 kts | 260° |
| 2026-05-04 19:44 | 38.76459 | -105.41648 | 33761 ft | 368 kts | 260° |
| 2026-05-04 19:44 | 38.75279 | -105.48021 | 33767 ft | 367 kts | 260° |
| 2026-05-04 19:45 | 38.74102 | -105.54359 | 33774 ft | 368 kts | 260° |
| 2026-05-04 19:45 | 38.72915 | -105.60732 | 33762 ft | 367 kts | 260° |
| 2026-05-04 19:46 | 38.71726 | -105.67086 | 33776 ft | 367 kts | 259° |
| 2026-05-04 19:46 | 38.70539 | -105.73417 | 33834 ft | 366 kts | 259° |
| 2026-05-04 19:47 | 38.69347 | -105.79757 | 33862 ft | 366 kts | 259° |
| 2026-05-04 19:47 | 38.68151 | -105.86094 | 33888 ft | 366 kts | 259° |
| 2026-05-04 19:48 | 38.66958 | -105.92391 | 33915 ft | 366 kts | 259° |
| 2026-05-04 19:48 | 38.65753 | -105.98733 | 33949 ft | 366 kts | 259° |
| 2026-05-04 19:49 | 38.64547 | -106.05067 | 33967 ft | 367 kts | 259° |
| 2026-05-04 19:49 | 38.63336 | -106.11399 | 33962 ft | 366 kts | 259° |
| 2026-05-04 19:50 | 38.62124 | -106.17720 | 33955 ft | 365 kts | 259° |
| 2026-05-04 19:50 | 38.60913 | -106.24008 | 33933 ft | 363 kts | 259° |
| 2026-05-04 19:51 | 38.59703 | -106.30280 | 33915 ft | 363 kts | 259° |
| 2026-05-04 19:51 | 38.58490 | -106.36550 | 33920 ft | 363 kts | 259° |
| 2026-05-04 19:52 | 38.57282 | -106.42773 | 33908 ft | 363 kts | 259° |
| 2026-05-04 19:52 | 38.56060 | -106.49051 | 33879 ft | 364 kts | 259° |
| 2026-05-04 19:53 | 38.54836 | -106.55313 | 33926 ft | 362 kts | 259° |
| 2026-05-04 19:53 | 38.53610 | -106.61569 | 33951 ft | 363 kts | 259° |
| 2026-05-04 19:54 | 38.52382 | -106.67819 | 33971 ft | 363 kts | 258° |
| 2026-05-04 19:54 | 38.51151 | -106.74062 | 34008 ft | 362 kts | 258° |
| 2026-05-04 19:55 | 38.49929 | -106.80247 | 34027 ft | 361 kts | 258° |
| 2026-05-04 19:55 | 38.48697 | -106.86457 | 34046 ft | 361 kts | 258° |
| 2026-05-04 19:56 | 38.47464 | -106.92662 | 34047 ft | 360 kts | 258° |
| 2026-05-04 19:56 | 38.46227 | -106.98863 | 34049 ft | 360 kts | 258° |
| 2026-05-04 19:57 | 38.44879 | -107.05030 | 34028 ft | 362 kts | 253° |
| 2026-05-04 19:57 | 38.42930 | -107.10984 | 34003 ft | 364 kts | 251° |
| 2026-05-04 19:58 | 38.40951 | -107.16913 | 33984 ft | 363 kts | 251° |
| 2026-05-04 19:58 | 38.38975 | -107.22851 | 33946 ft | 364 kts | 251° |
| 2026-05-04 19:59 | 38.37013 | -107.28751 | 33924 ft | 364 kts | 251° |
| 2026-05-04 19:59 | 38.35043 | -107.34677 | 33895 ft | 362 kts | 251° |
| 2026-05-04 20:00 | 38.33080 | -107.40575 | 33898 ft | 361 kts | 251° |
| 2026-05-04 20:00 | 38.31114 | -107.46468 | 33873 ft | 362 kts | 251° |
| 2026-05-04 20:01 | 38.29145 | -107.52361 | 33898 ft | 360 kts | 250° |
| 2026-05-04 20:01 | 38.27174 | -107.58243 | 33880 ft | 360 kts | 250° |
| 2026-05-04 20:02 | 38.25205 | -107.64108 | 33885 ft | 361 kts | 250° |
| 2026-05-04 20:02 | 38.23241 | -107.69951 | 33884 ft | 361 kts | 250° |
| 2026-05-04 20:03 | 38.21261 | -107.75824 | 33931 ft | 361 kts | 250° |
| 2026-05-04 20:03 | 38.19283 | -107.81680 | 33961 ft | 360 kts | 250° |
| 2026-05-04 20:04 | 38.17309 | -107.87513 | 33986 ft | 359 kts | 250° |
| 2026-05-04 20:04 | 38.15336 | -107.93334 | 34011 ft | 358 kts | 249° |
| 2026-05-04 20:05 | 38.13364 | -107.99139 | 34019 ft | 358 kts | 249° |
| 2026-05-04 20:05 | 38.11391 | -108.04934 | 34014 ft | 358 kts | 249° |
| 2026-05-04 20:06 | 38.09414 | -108.10732 | 34002 ft | 358 kts | 249° |
| 2026-05-04 20:06 | 38.07433 | -108.16527 | 33988 ft | 358 kts | 249° |
| 2026-05-04 20:07 | 38.05465 | -108.22276 | 33945 ft | 356 kts | 249° |
| 2026-05-04 20:07 | 38.03489 | -108.28034 | 33913 ft | 356 kts | 249° |
| 2026-05-04 20:08 | 38.01509 | -108.33794 | 33862 ft | 356 kts | 249° |
| 2026-05-04 20:08 | 37.99861 | -108.38579 | 33836 ft | 355 kts | 249° |
| 2026-05-04 20:09 | 37.97884 | -108.44313 | 33862 ft | 355 kts | 248° |
| 2026-05-04 20:09 | 37.95902 | -108.50046 | 33840 ft | 355 kts | 248° |
| 2026-05-04 20:10 | 37.93918 | -108.55772 | 33851 ft | 355 kts | 248° |
| 2026-05-04 20:10 | 37.91933 | -108.61493 | 33845 ft | 354 kts | 248° |
| 2026-05-04 20:11 | 37.89960 | -108.67170 | 33839 ft | 354 kts | 248° |
| 2026-05-04 20:11 | 37.87974 | -108.72871 | 33853 ft | 353 kts | 248° |
| 2026-05-04 20:12 | 37.85992 | -108.78553 | 33850 ft | 352 kts | 248° |
| 2026-05-04 20:12 | 37.84009 | -108.84225 | 33874 ft | 351 kts | 248° |
| 2026-05-04 20:13 | 37.82038 | -108.89851 | 33845 ft | 352 kts | 248° |
| 2026-05-04 20:13 | 37.80251 | -108.95610 | 33848 ft | 351 kts | 252° |
| 2026-05-04 20:14 | 37.78806 | -109.01509 | 33846 ft | 351 kts | 252° |
| 2026-05-04 20:14 | 37.77361 | -109.07407 | 33841 ft | 351 kts | 252° |
| 2026-05-04 20:15 | 37.75910 | -109.13297 | 33866 ft | 351 kts | 252° |
| 2026-05-04 20:15 | 37.74453 | -109.19181 | 33898 ft | 351 kts | 252° |
| 2026-05-04 20:16 | 37.72999 | -109.25033 | 33916 ft | 351 kts | 252° |
| 2026-05-04 20:16 | 37.71549 | -109.30904 | 33946 ft | 350 kts | 252° |
| 2026-05-04 20:17 | 37.70080 | -109.36759 | 33972 ft | 349 kts | 252° |
| 2026-05-04 20:17 | 37.68612 | -109.42608 | 34006 ft | 350 kts | 252° |
| 2026-05-04 20:18 | 37.67140 | -109.48466 | 34024 ft | 350 kts | 252° |
| 2026-05-04 20:18 | 37.65663 | -109.54337 | 34015 ft | 351 kts | 252° |
| 2026-05-04 20:19 | 37.64178 | -109.60224 | 34002 ft | 353 kts | 252° |
| 2026-05-04 20:19 | 37.62686 | -109.66129 | 33977 ft | 353 kts | 251° |
| 2026-05-04 20:20 | 37.61201 | -109.71985 | 33957 ft | 352 kts | 251° |
| 2026-05-04 20:20 | 37.59705 | -109.77879 | 33908 ft | 353 kts | 251° |
| 2026-05-04 20:21 | 37.58207 | -109.83763 | 33893 ft | 352 kts | 251° |
| 2026-05-04 20:21 | 37.55949 | -109.92609 | 33833 ft | 353 kts | 251° |
| 2026-05-04 20:22 | 37.54449 | -109.98471 | 33826 ft | 353 kts | 251° |
| 2026-05-04 20:22 | 37.52936 | -110.04364 | 33820 ft | 353 kts | 251° |
| 2026-05-04 20:23 | 37.51422 | -110.10252 | 33815 ft | 353 kts | 251° |
| 2026-05-04 20:23 | 37.49904 | -110.16139 | 33807 ft | 353 kts | 251° |
| 2026-05-04 20:24 | 37.48384 | -110.22021 | 33813 ft | 353 kts | 251° |
| 2026-05-04 20:24 | 37.46872 | -110.27857 | 33803 ft | 353 kts | 251° |
| 2026-05-04 20:25 | 37.45345 | -110.33737 | 33797 ft | 353 kts | 251° |
| 2026-05-04 20:25 | 37.43815 | -110.39618 | 33782 ft | 353 kts | 250° |
| 2026-05-04 20:26 | 37.42286 | -110.45481 | 33791 ft | 353 kts | 250° |
| 2026-05-04 20:26 | 37.40751 | -110.51353 | 33789 ft | 354 kts | 250° |
| 2026-05-04 20:27 | 37.39219 | -110.57200 | 33786 ft | 354 kts | 250° |
| 2026-05-04 20:27 | 37.37672 | -110.63090 | 33780 ft | 355 kts | 250° |
| 2026-05-04 20:28 | 37.36122 | -110.68978 | 33785 ft | 355 kts | 250° |
| 2026-05-04 20:28 | 37.34568 | -110.74868 | 33785 ft | 355 kts | 250° |
| 2026-05-04 20:29 | 37.33008 | -110.80768 | 33808 ft | 355 kts | 250° |
| 2026-05-04 20:29 | 37.31442 | -110.86672 | 33789 ft | 356 kts | 250° |
| 2026-05-04 20:30 | 37.29872 | -110.92583 | 33790 ft | 357 kts | 250° |
| 2026-05-04 20:30 | 37.28303 | -110.98477 | 33796 ft | 358 kts | 250° |
| 2026-05-04 20:31 | 37.26721 | -111.04408 | 33787 ft | 358 kts | 250° |
| 2026-05-04 20:31 | 37.25136 | -111.10335 | 33793 ft | 358 kts | 250° |
| 2026-05-04 20:32 | 37.23547 | -111.16266 | 33796 ft | 360 kts | 250° |
| 2026-05-04 20:32 | 37.21947 | -111.22219 | 33785 ft | 360 kts | 249° |
| 2026-05-04 20:33 | 37.20340 | -111.28164 | 33830 ft | 360 kts | 250° |
| 2026-05-04 20:33 | 37.18734 | -111.34108 | 33839 ft | 359 kts | 250° |
| 2026-05-04 20:34 | 37.17141 | -111.39998 | 33842 ft | 358 kts | 250° |
| 2026-05-04 20:34 | 37.15538 | -111.45909 | 33855 ft | 358 kts | 249° |
| 2026-05-04 20:35 | 37.13934 | -111.51807 | 33866 ft | 357 kts | 249° |
| 2026-05-04 20:35 | 37.12330 | -111.57689 | 33863 ft | 356 kts | 249° |
| 2026-05-04 20:36 | 37.10727 | -111.63557 | 33852 ft | 355 kts | 249° |
| 2026-05-04 20:36 | 37.09125 | -111.69408 | 33853 ft | 354 kts | 249° |
| 2026-05-04 20:37 | 37.07527 | -111.75234 | 33839 ft | 354 kts | 249° |
| 2026-05-04 20:37 | 37.05925 | -111.81058 | 33815 ft | 354 kts | 249° |
| 2026-05-04 20:38 | 37.04331 | -111.86842 | 33801 ft | 354 kts | 249° |
| 2026-05-04 20:38 | 37.02723 | -111.92666 | 33787 ft | 354 kts | 249° |
| 2026-05-04 20:39 | 37.01113 | -111.98484 | 33796 ft | 353 kts | 249° |
| 2026-05-04 20:39 | 36.99500 | -112.04298 | 33786 ft | 354 kts | 249° |
| 2026-05-04 20:40 | 36.97885 | -112.10110 | 33799 ft | 353 kts | 249° |
| 2026-05-04 20:40 | 36.96273 | -112.15894 | 33803 ft | 352 kts | 249° |
| 2026-05-04 20:41 | 36.94673 | -112.21626 | 33803 ft | 351 kts | 248° |
| 2026-05-04 20:41 | 36.93065 | -112.27378 | 33796 ft | 350 kts | 248° |
| 2026-05-04 20:42 | 36.91455 | -112.33119 | 33802 ft | 349 kts | 248° |
| 2026-05-04 20:42 | 36.89848 | -112.38844 | 33812 ft | 349 kts | 248° |
| 2026-05-04 20:43 | 36.88238 | -112.44571 | 33804 ft | 349 kts | 248° |
| 2026-05-04 20:43 | 36.86639 | -112.50261 | 33804 ft | 348 kts | 248° |
| 2026-05-04 20:44 | 36.85031 | -112.55973 | 33807 ft | 348 kts | 248° |
| 2026-05-04 20:44 | 36.83420 | -112.61689 | 33813 ft | 348 kts | 248° |
| 2026-05-04 20:45 | 36.81811 | -112.67386 | 33835 ft | 348 kts | 248° |
| 2026-05-04 20:45 | 36.80199 | -112.73079 | 33859 ft | 348 kts | 248° |
| 2026-05-04 20:46 | 36.78595 | -112.78734 | 33871 ft | 348 kts | 248° |
| 2026-05-04 20:46 | 36.76978 | -112.84424 | 33877 ft | 348 kts | 248° |
| 2026-05-04 20:47 | 36.75359 | -112.90108 | 33894 ft | 348 kts | 247° |
| 2026-05-04 20:47 | 36.73735 | -112.95797 | 33890 ft | 348 kts | 247° |
| 2026-05-04 20:48 | 36.72107 | -113.01489 | 33882 ft | 349 kts | 247° |
| 2026-05-04 20:48 | 36.70473 | -113.07189 | 33867 ft | 349 kts | 247° |
| 2026-05-04 20:49 | 36.68845 | -113.12858 | 33851 ft | 349 kts | 247° |
| 2026-05-04 20:49 | 36.67204 | -113.18561 | 33833 ft | 349 kts | 247° |
| 2026-05-04 20:50 | 36.65559 | -113.24266 | 33815 ft | 350 kts | 247° |
| 2026-05-04 20:50 | 36.63907 | -113.29983 | 33802 ft | 350 kts | 246° |
| 2026-05-04 20:51 | 36.61935 | -113.35514 | 33807 ft | 348 kts | 239° |
| 2026-05-04 20:51 | 36.59245 | -113.40468 | 33803 ft | 348 kts | 235° |
| 2026-05-04 20:52 | 36.56437 | -113.45371 | 33801 ft | 348 kts | 235° |
| 2026-05-04 20:52 | 36.53631 | -113.50277 | 33798 ft | 348 kts | 235° |
| 2026-05-04 20:53 | 36.50826 | -113.55188 | 33809 ft | 348 kts | 235° |
| 2026-05-04 20:53 | 36.48026 | -113.60091 | 33797 ft | 348 kts | 235° |
| 2026-05-04 20:54 | 36.45220 | -113.65002 | 33806 ft | 348 kts | 235° |
| 2026-05-04 20:54 | 36.42417 | -113.69898 | 33801 ft | 348 kts | 235° |
| 2026-05-04 20:55 | 36.39623 | -113.74770 | 33804 ft | 349 kts | 234° |
| 2026-05-04 20:55 | 36.36803 | -113.79680 | 33798 ft | 349 kts | 234° |
| 2026-05-04 20:56 | 36.33976 | -113.84598 | 33785 ft | 350 kts | 234° |
| 2026-05-04 20:56 | 36.31151 | -113.89503 | 33783 ft | 349 kts | 234° |
| 2026-05-04 20:57 | 36.28810 | -113.93564 | 33777 ft | 348 kts | 234° |
| 2026-05-04 20:57 | 36.25998 | -113.98436 | 33779 ft | 347 kts | 234° |
| 2026-05-04 20:58 | 36.23185 | -114.03301 | 33770 ft | 347 kts | 234° |
| 2026-05-04 20:58 | 36.20373 | -114.08158 | 33758 ft | 346 kts | 234° |
| 2026-05-04 20:59 | 36.17561 | -114.13009 | 33753 ft | 346 kts | 234° |
| 2026-05-04 20:59 | 36.14755 | -114.17845 | 33763 ft | 345 kts | 234° |
| 2026-05-04 21:00 | 36.11948 | -114.22675 | 33752 ft | 345 kts | 233° |
| 2026-05-04 21:00 | 36.09160 | -114.27462 | 33753 ft | 346 kts | 233° |
| 2026-05-04 21:01 | 36.06081 | -114.32025 | 33754 ft | 346 kts | 229° |
| 2026-05-04 21:01 | 36.02871 | -114.36447 | 33751 ft | 345 kts | 229° |
| 2026-05-04 21:02 | 35.99665 | -114.40866 | 33762 ft | 345 kts | 229° |
| 2026-05-04 21:02 | 35.96464 | -114.45287 | 33766 ft | 346 kts | 229° |
| 2026-05-04 21:03 | 35.93257 | -114.49719 | 33777 ft | 346 kts | 229° |
| 2026-05-04 21:03 | 35.90046 | -114.54153 | 33788 ft | 346 kts | 229° |
| 2026-05-04 21:04 | 35.86844 | -114.58569 | 33801 ft | 345 kts | 229° |
| 2026-05-04 21:04 | 35.83656 | -114.62960 | 33823 ft | 346 kts | 229° |
| 2026-05-04 21:05 | 35.80448 | -114.67373 | 33839 ft | 346 kts | 228° |
| 2026-05-04 21:05 | 35.77231 | -114.71793 | 33824 ft | 345 kts | 229° |
| 2026-05-04 21:06 | 35.74031 | -114.76184 | 33846 ft | 344 kts | 229° |
| 2026-05-04 21:06 | 35.70837 | -114.80563 | 33854 ft | 343 kts | 229° |
| 2026-05-04 21:07 | 35.67656 | -114.84915 | 33839 ft | 340 kts | 229° |
| 2026-05-04 21:07 | 35.64494 | -114.89246 | 33864 ft | 341 kts | 229° |
| 2026-05-04 21:08 | 35.61320 | -114.93600 | 33863 ft | 342 kts | 229° |
| 2026-05-04 21:08 | 35.58163 | -114.97928 | 33871 ft | 342 kts | 229° |
| 2026-05-04 21:09 | 35.54982 | -115.02283 | 33880 ft | 342 kts | 229° |
| 2026-05-04 21:09 | 35.51794 | -115.06639 | 33872 ft | 343 kts | 229° |
| 2026-05-04 21:10 | 35.48566 | -115.10961 | 33881 ft | 343 kts | 227° |
| 2026-05-04 21:10 | 35.45294 | -115.15214 | 33880 ft | 343 kts | 227° |
| 2026-05-04 21:11 | 35.42018 | -115.19471 | 33881 ft | 343 kts | 227° |
| 2026-05-04 21:11 | 35.38751 | -115.23721 | 33885 ft | 342 kts | 227° |
| 2026-05-04 21:12 | 35.35512 | -115.27936 | 33890 ft | 341 kts | 227° |
| 2026-05-04 21:12 | 35.32254 | -115.32171 | 33892 ft | 340 kts | 227° |
| 2026-05-04 21:13 | 35.29008 | -115.36384 | 33892 ft | 340 kts | 227° |
| 2026-05-04 21:13 | 35.25767 | -115.40587 | 33894 ft | 339 kts | 227° |
| 2026-05-04 21:14 | 35.22529 | -115.44782 | 33898 ft | 338 kts | 227° |
| 2026-05-04 21:14 | 35.19294 | -115.48967 | 33895 ft | 339 kts | 227° |
| 2026-05-04 21:15 | 35.16075 | -115.53127 | 33891 ft | 339 kts | 227° |
| 2026-05-04 21:15 | 35.12827 | -115.57318 | 33887 ft | 339 kts | 227° |
| 2026-05-04 21:16 | 35.09573 | -115.61492 | 33885 ft | 339 kts | 227° |
| 2026-05-04 21:16 | 35.06321 | -115.65647 | 33881 ft | 338 kts | 227° |
| 2026-05-04 21:17 | 35.03068 | -115.69800 | 33880 ft | 338 kts | 227° |
| 2026-05-04 21:17 | 34.99822 | -115.73942 | 33877 ft | 338 kts | 227° |
| 2026-05-04 21:18 | 34.96576 | -115.78080 | 33869 ft | 337 kts | 227° |
| 2026-05-04 21:18 | 34.93353 | -115.82183 | 33871 ft | 337 kts | 227° |
| 2026-05-04 21:19 | 34.90113 | -115.86303 | 33866 ft | 337 kts | 226° |
| 2026-05-04 21:19 | 34.86866 | -115.90428 | 33864 ft | 336 kts | 226° |
| 2026-05-04 21:20 | 34.83629 | -115.94536 | 33863 ft | 336 kts | 226° |
| 2026-05-04 21:20 | 34.80390 | -115.98641 | 33858 ft | 336 kts | 226° |
| 2026-05-04 21:21 | 34.77151 | -116.02740 | 33863 ft | 336 kts | 226° |
| 2026-05-04 21:21 | 34.73917 | -116.06856 | 33858 ft | 337 kts | 227° |
| 2026-05-04 21:22 | 34.70706 | -116.10950 | 33864 ft | 337 kts | 226° |
| 2026-05-04 21:22 | 34.67462 | -116.15078 | 33874 ft | 337 kts | 226° |
| 2026-05-04 21:23 | 34.64221 | -116.19196 | 33868 ft | 337 kts | 226° |
| 2026-05-04 21:23 | 34.60982 | -116.23308 | 33889 ft | 337 kts | 226° |
| 2026-05-04 21:24 | 34.57748 | -116.27408 | 33895 ft | 336 kts | 226° |
| 2026-05-04 21:24 | 34.54547 | -116.31461 | 33911 ft | 334 kts | 226° |
| 2026-05-04 21:25 | 34.51318 | -116.35544 | 33914 ft | 335 kts | 226° |
| 2026-05-04 21:25 | 34.48087 | -116.39624 | 33922 ft | 335 kts | 226° |
| 2026-05-04 21:26 | 34.44832 | -116.43735 | 33222 ft | 339 kts | 225° |
| 2026-05-04 21:26 | 34.43202 | -116.45786 | 32562 ft | 336 kts | 226° |
| 2026-05-04 21:26 | 34.41690 | -116.47961 | 31827 ft | 337 kts | 233° |
| 2026-05-04 21:27 | 34.40495 | -116.50453 | 30925 ft | 345 kts | 239° |
| 2026-05-04 21:27 | 34.39432 | -116.53077 | 30058 ft | 349 kts | 240° |
| 2026-05-04 21:27 | 34.38357 | -116.55735 | 29038 ft | 353 kts | 240° |
| 2026-05-04 21:27 | 34.37291 | -116.58361 | 28715 ft | 341 kts | 240° |
| 2026-05-04 21:28 | 34.36257 | -116.60893 | 28552 ft | 328 kts | 240° |
| 2026-05-04 21:28 | 34.35260 | -116.63318 | 28380 ft | 315 kts | 240° |
| 2026-05-04 21:28 | 34.34295 | -116.65656 | 28245 ft | 308 kts | 240° |
| 2026-05-04 21:28 | 34.33331 | -116.67985 | 28043 ft | 315 kts | 240° |
| 2026-05-04 21:29 | 34.32370 | -116.70347 | 27612 ft | 317 kts | 240° |
| 2026-05-04 21:29 | 34.31406 | -116.72748 | 26942 ft | 318 kts | 241° |
| 2026-05-04 21:29 | 34.30441 | -116.75156 | 26181 ft | 321 kts | 241° |
| 2026-05-04 21:29 | 34.29463 | -116.77595 | 25604 ft | 321 kts | 242° |
| 2026-05-04 21:30 | 34.28492 | -116.80013 | 25144 ft | 318 kts | 242° |
| 2026-05-04 21:30 | 34.27526 | -116.82414 | 24664 ft | 316 kts | 242° |
| 2026-05-04 21:30 | 34.26565 | -116.84798 | 24198 ft | 315 kts | 242° |
| 2026-05-04 21:30 | 34.25608 | -116.87171 | 23752 ft | 313 kts | 242° |
| 2026-05-04 21:31 | 34.23703 | -116.91892 | 22781 ft | 310 kts | 243° |
| 2026-05-04 21:31 | 34.22759 | -116.94225 | 22326 ft | 308 kts | 243° |
| 2026-05-04 21:31 | 34.21824 | -116.96536 | 21902 ft | 305 kts | 243° |
| 2026-05-04 21:32 | 34.20925 | -116.98845 | 21419 ft | 304 kts | 246° |
| 2026-05-04 21:32 | 34.20198 | -117.01305 | 20516 ft | 319 kts | 250° |
| 2026-05-04 21:32 | 34.19536 | -117.03884 | 19931 ft | 320 kts | 251° |
| 2026-05-04 21:32 | 34.18881 | -117.06454 | 19436 ft | 320 kts | 250° |
| 2026-05-04 21:33 | 34.18219 | -117.08981 | 19005 ft | 319 kts | 250° |
| 2026-05-04 21:33 | 34.17537 | -117.11523 | 18602 ft | 318 kts | 250° |
| 2026-05-04 21:33 | 34.16850 | -117.14062 | 18138 ft | 317 kts | 250° |
| 2026-05-04 21:33 | 34.16159 | -117.16599 | 17514 ft | 321 kts | 250° |
| 2026-05-04 21:34 | 34.15456 | -117.19156 | 17050 ft | 320 kts | 250° |
| 2026-05-04 21:34 | 34.14756 | -117.21700 | 16605 ft | 318 kts | 250° |
| 2026-05-04 21:34 | 34.14057 | -117.24235 | 16140 ft | 317 kts | 250° |
| 2026-05-04 21:34 | 34.13361 | -117.26760 | 15715 ft | 316 kts | 250° |
| 2026-05-04 21:35 | 34.12670 | -117.29270 | 15296 ft | 314 kts | 250° |
| 2026-05-04 21:35 | 34.11980 | -117.31772 | 14879 ft | 313 kts | 250° |
| 2026-05-04 21:35 | 34.11293 | -117.34258 | 14470 ft | 312 kts | 250° |
| 2026-05-04 21:35 | 34.10607 | -117.36742 | 14069 ft | 311 kts | 250° |
| 2026-05-04 21:36 | 34.09959 | -117.39223 | 13720 ft | 310 kts | 252° |
| 2026-05-04 21:36 | 34.09341 | -117.41718 | 13395 ft | 312 kts | 252° |
| 2026-05-04 21:36 | 34.08715 | -117.44252 | 13095 ft | 317 kts | 252° |
| 2026-05-04 21:36 | 34.08086 | -117.46778 | 12770 ft | 319 kts | 252° |
| 2026-05-04 21:37 | 34.07448 | -117.49327 | 12459 ft | 315 kts | 252° |
| 2026-05-04 21:37 | 34.06812 | -117.51842 | 12151 ft | 310 kts | 252° |
| 2026-05-04 21:37 | 34.06182 | -117.54312 | 11846 ft | 305 kts | 252° |
| 2026-05-04 21:37 | 34.05560 | -117.56739 | 11559 ft | 300 kts | 252° |
| 2026-05-04 21:38 | 34.04950 | -117.59122 | 11275 ft | 295 kts | 253° |
| 2026-05-04 21:38 | 34.04346 | -117.61482 | 10998 ft | 293 kts | 253° |
| 2026-05-04 21:38 | 34.03750 | -117.63809 | 10718 ft | 289 kts | 253° |
| 2026-05-04 21:38 | 34.03161 | -117.66108 | 10439 ft | 285 kts | 253° |
| 2026-05-04 21:39 | 34.02580 | -117.68372 | 10176 ft | 280 kts | 253° |
| 2026-05-04 21:39 | 34.02064 | -117.70620 | 9913 ft | 275 kts | 260° |
| 2026-05-04 21:39 | 34.01826 | -117.72845 | 9931 ft | 261 kts | 264° |